createdAt,value
2018-08-06T05:30:59.906Z,18.50
2018-08-06T05:33:29.167Z,18.60
2018-08-06T05:35:57.894Z,18.70
2018-08-06T05:38:26.541Z,18.90
2018-08-06T05:43:23.397Z,19.00
2018-08-06T05:45:52.035Z,19.10
2018-08-06T05:48:20.687Z,19.20
2018-08-06T05:50:49.254Z,19.40
2018-08-06T05:53:18.807Z,19.70
2018-08-06T05:55:47.648Z,20.20
2018-08-06T05:58:16.335Z,20.30
2018-08-06T06:00:45.008Z,20.30
2018-08-06T06:03:13.682Z,20.50
2018-08-06T06:05:42.375Z,20.70
2018-08-06T06:08:11.454Z,20.70
2018-08-06T06:10:40.168Z,20.70
2018-08-06T06:13:08.814Z,21.00
2018-08-06T06:15:38.432Z,21.10
2018-08-06T06:18:07.031Z,21.30
2018-08-06T06:20:35.655Z,21.20
2018-08-06T06:23:04.334Z,21.10
2018-08-06T06:25:33.658Z,21.20
2018-08-06T06:28:02.343Z,21.30
2018-08-06T06:30:31.837Z,21.20
2018-08-06T06:33:01.495Z,21.30
2018-08-06T06:35:30.089Z,21.50
2018-08-06T06:37:58.662Z,21.50
2018-08-06T06:40:27.279Z,21.60
2018-08-06T06:42:56.263Z,21.60
2018-08-06T06:45:24.911Z,21.70
2018-08-06T06:47:53.495Z,21.70
2018-08-06T06:50:22.132Z,21.70
2018-08-06T06:52:50.742Z,21.70
2018-08-06T06:55:20.306Z,21.70
2018-08-06T06:57:48.958Z,21.90
2018-08-06T07:00:17.918Z,21.90
2018-08-06T07:02:46.483Z,21.90
2018-08-06T07:05:15.157Z,21.90
2018-08-06T07:07:43.777Z,22.00
2018-08-06T07:10:13.629Z,22.00
2018-08-06T07:12:43.636Z,22.10
2018-08-06T07:15:16.318Z,22.10
2018-08-06T07:17:46.977Z,22.30
2018-08-06T07:20:16.868Z,22.30
2018-08-06T07:22:45.406Z,22.30
2018-08-06T07:25:14.052Z,22.30
2018-08-06T07:27:43.352Z,22.40
2018-08-06T07:30:13.534Z,22.40
2018-08-06T07:32:42.845Z,22.40
2018-08-06T07:35:12.986Z,22.50
2018-08-06T07:37:42.179Z,22.80
2018-08-06T07:40:12.320Z,22.80
2018-08-06T07:42:40.928Z,22.90
2018-08-06T07:45:13.063Z,22.90
2018-08-06T07:47:41.660Z,23.00
2018-08-06T07:50:13.655Z,23.10
2018-08-06T07:52:42.587Z,23.10
2018-08-06T07:55:11.359Z,23.10
2018-08-06T07:57:40.344Z,23.10
2018-08-06T08:00:12.949Z,23.10
2018-08-06T08:02:41.990Z,23.10
2018-08-06T08:05:12.689Z,23.20
2018-08-06T08:07:42.446Z,23.20
2018-08-06T08:10:14.064Z,23.60
2018-08-06T08:12:43.055Z,23.60
2018-08-06T08:15:14.506Z,23.70
2018-08-06T08:17:43.910Z,23.70
2018-08-06T08:20:14.021Z,23.70
2018-08-06T08:22:42.884Z,23.80
2018-08-06T08:25:16.103Z,23.90
2018-08-06T08:27:44.911Z,23.90
2018-08-06T08:30:14.898Z,24.00
2018-08-06T08:32:43.559Z,24.10
2018-08-06T08:35:13.287Z,24.10
2018-08-06T08:37:41.972Z,24.20
2018-08-06T08:40:12.774Z,24.30
2018-08-06T08:42:41.346Z,24.30
2018-08-06T08:45:12.815Z,24.30
2018-08-06T08:47:42.392Z,24.40
2018-08-06T08:50:12.861Z,24.50
2018-08-06T08:52:41.974Z,24.60
2018-08-06T08:55:12.014Z,24.70
2018-08-06T08:57:40.812Z,24.60
2018-08-06T09:00:11.802Z,24.80
2018-08-06T09:02:40.739Z,24.80
2018-08-06T09:05:09.377Z,24.90
2018-08-06T09:07:38.543Z,25.00
2018-08-06T09:10:09.035Z,25.10
2018-08-06T09:12:37.740Z,25.20
2018-08-06T09:15:10.271Z,25.30
2018-08-06T09:17:38.932Z,25.30
2018-08-06T09:20:07.614Z,25.30
2018-08-06T09:22:36.222Z,25.50
2018-08-06T09:25:05.999Z,25.50
2018-08-06T09:27:34.664Z,25.50
2018-08-06T09:30:03.759Z,25.60
2018-08-06T09:32:32.351Z,25.60
2018-08-06T09:35:00.911Z,25.90
2018-08-06T09:37:29.755Z,26.00
2018-08-06T09:39:58.917Z,26.10
2018-08-06T09:42:27.680Z,26.10
2018-08-06T09:44:56.273Z,26.20
2018-08-06T09:47:24.945Z,26.40
2018-08-06T09:49:53.593Z,26.50
2018-08-06T09:52:22.207Z,26.60
2018-08-06T09:54:50.890Z,26.60
2018-08-06T09:57:19.479Z,26.60
2018-08-06T09:59:48.096Z,26.70
2018-08-06T10:02:16.711Z,26.70
2018-08-06T10:04:45.295Z,26.80
2018-08-06T10:07:13.877Z,26.80
2018-08-06T10:09:42.454Z,26.90
2018-08-06T10:12:11.164Z,27.00
2018-08-06T10:14:39.728Z,27.10
2018-08-06T10:17:08.347Z,27.20
2018-08-06T10:19:36.978Z,27.40
2018-08-06T10:22:05.657Z,27.40
2018-08-06T10:24:35.217Z,27.50
2018-08-06T10:27:03.808Z,27.60
2018-08-06T10:29:32.406Z,27.80
2018-08-06T10:32:01.032Z,27.90
2018-08-06T10:34:30.543Z,27.90
2018-08-06T10:37:00.056Z,28.00
2018-08-06T10:39:29.531Z,28.20
2018-08-06T10:41:59.132Z,28.40
2018-08-06T10:44:27.804Z,28.60
2018-08-06T10:46:57.387Z,28.70
2018-08-06T10:49:26.009Z,28.80
2018-08-06T10:54:22.981Z,29.10
2018-08-06T10:56:51.656Z,29.20
2018-08-06T10:59:20.400Z,28.90
2018-08-06T11:01:49.655Z,29.00
2018-08-06T11:04:18.325Z,29.30
2018-08-06T11:06:46.967Z,29.30
2018-08-06T11:09:15.989Z,29.40
2018-08-06T11:11:44.662Z,29.40
2018-08-06T11:14:13.372Z,29.40
2018-08-06T11:16:42.020Z,29.50
2018-08-06T11:19:10.779Z,29.50
2018-08-06T11:21:39.408Z,29.70
2018-08-06T11:24:08.071Z,30.30
2018-08-06T11:26:36.661Z,30.50
2018-08-06T11:29:06.088Z,30.60
2018-08-06T11:31:34.726Z,30.80
2018-08-06T11:34:04.367Z,30.90
2018-08-06T11:36:32.966Z,31.20
2018-08-06T11:39:01.577Z,31.20
2018-08-06T11:41:31.285Z,31.30
2018-08-06T11:43:59.834Z,31.30
2018-08-06T11:46:29.138Z,31.20
2018-08-06T11:48:57.763Z,31.60
2018-08-06T11:51:26.368Z,31.80
2018-08-06T11:53:55.249Z,32.00
2018-08-06T11:56:24.579Z,32.30
2018-08-06T11:58:53.171Z,32.60
2018-08-06T12:01:21.783Z,33.30
2018-08-06T12:03:50.487Z,33.80
2018-08-06T12:06:19.047Z,34.70
2018-08-06T12:11:16.130Z,38.00
2018-08-06T12:13:44.755Z,39.10
2018-08-06T12:16:14.412Z,40.10
2018-08-06T12:21:11.278Z,41.00
2018-08-06T12:23:39.893Z,40.30
2018-08-06T12:26:08.607Z,40.00
2018-08-06T12:28:37.163Z,40.00
2018-08-06T12:31:05.820Z,40.10
2018-08-06T12:33:34.468Z,39.80
2018-08-06T12:36:03.110Z,39.10
2018-08-06T12:38:43.014Z,38.10
2018-08-06T12:41:12.626Z,37.80
2018-08-06T12:43:41.379Z,37.80
2018-08-06T12:46:24.466Z,37.00
2018-08-06T12:48:53.155Z,36.10
2018-08-06T12:51:22.007Z,35.40
2018-08-06T12:53:50.604Z,35.10
2018-08-06T12:56:19.170Z,34.60
2018-08-06T12:58:47.802Z,35.20
2018-08-06T13:01:16.661Z,35.80
2018-08-06T13:03:45.318Z,35.50
2018-08-06T13:06:14.664Z,34.90
2018-08-06T13:08:43.655Z,34.40
2018-08-06T13:11:12.690Z,34.10
2018-08-06T13:13:41.394Z,34.10
2018-08-06T13:16:10.017Z,34.10
2018-08-06T13:21:07.955Z,34.50
2018-08-06T13:23:36.586Z,35.10
2018-08-06T13:26:05.326Z,35.90
2018-08-06T13:28:33.975Z,36.30
2018-08-06T13:31:02.619Z,36.80
2018-08-06T13:33:31.702Z,37.40
2018-08-06T13:36:00.327Z,37.50
2018-08-06T13:38:29.983Z,38.10
2018-08-06T13:40:58.705Z,38.50
2018-08-06T13:43:27.288Z,38.90
2018-08-06T13:45:56.049Z,39.10
2018-08-06T13:48:24.809Z,39.10
2018-08-06T13:50:56.778Z,38.90
2018-08-06T13:53:25.546Z,38.80
2018-08-06T13:55:55.021Z,38.80
2018-08-06T13:58:23.762Z,38.90
2018-08-06T14:00:52.536Z,38.60
2018-08-06T14:03:21.344Z,38.30
2018-08-06T14:05:49.994Z,38.30
2018-08-06T14:08:18.681Z,38.40
2018-08-06T14:10:47.377Z,38.40
2018-08-06T14:13:16.027Z,38.50
2018-08-06T14:18:48.283Z,37.20
2018-08-06T14:21:17.000Z,36.20
2018-08-06T14:23:46.911Z,35.90
2018-08-06T14:26:15.577Z,36.20
2018-08-06T14:28:44.369Z,35.90
2018-08-06T14:31:13.919Z,35.40
2018-08-06T14:33:43.384Z,34.80
2018-08-06T14:36:14.174Z,35.10
2018-08-06T14:41:11.146Z,36.50
2018-08-06T14:43:39.855Z,37.00
2018-08-06T14:46:08.615Z,37.40
2018-08-06T14:48:37.291Z,37.80
2018-08-06T14:51:06.051Z,38.30
2018-08-06T14:53:34.806Z,38.70
2018-08-06T14:56:04.850Z,38.80
2018-08-06T14:58:33.675Z,38.50
2018-08-06T15:01:05.181Z,38.20
2018-08-06T15:03:33.799Z,37.40
2018-08-06T15:06:03.127Z,36.90
2018-08-06T15:08:31.995Z,36.40
2018-08-06T15:11:00.632Z,36.10
2018-08-06T15:13:30.531Z,36.10
2018-08-06T15:15:59.194Z,36.20
2018-08-06T15:18:27.820Z,35.80
2018-08-06T15:20:56.518Z,35.80
2018-08-06T15:23:25.138Z,35.80
2018-08-06T15:25:54.702Z,36.20
2018-08-06T15:28:23.807Z,36.50
2018-08-06T15:30:52.474Z,36.50
2018-08-06T15:33:21.120Z,36.60
2018-08-06T15:35:49.787Z,36.80
2018-08-06T15:38:18.439Z,37.10
2018-08-06T15:40:47.499Z,37.20
2018-08-06T15:43:16.226Z,37.10
2018-08-06T15:45:44.907Z,37.20
2018-08-06T15:48:13.581Z,37.00
2018-08-06T15:50:42.218Z,36.60
2018-08-06T15:53:10.882Z,36.20
2018-08-06T15:55:40.296Z,36.20
2018-08-06T15:58:09.004Z,36.40
2018-08-06T16:00:38.430Z,36.60
2018-08-06T16:03:07.139Z,36.80
2018-08-06T16:05:35.775Z,37.30
2018-08-06T16:08:04.491Z,37.80
2018-08-06T16:10:33.084Z,38.20
2018-08-06T16:13:01.698Z,38.50
2018-08-06T16:15:30.338Z,38.30
2018-08-06T16:17:59.040Z,37.70
2018-08-06T16:20:27.649Z,37.70
2018-08-06T16:22:56.238Z,37.90
2018-08-06T16:25:24.843Z,37.90
2018-08-06T16:27:54.102Z,37.50
2018-08-06T16:30:24.157Z,36.40
2018-08-06T16:32:52.815Z,35.80
2018-08-06T16:35:23.824Z,35.50
2018-08-06T16:37:53.996Z,35.30
2018-08-06T16:40:22.726Z,35.00
2018-08-06T16:42:51.838Z,34.70
2018-08-06T16:45:21.383Z,34.90
2018-08-06T16:47:50.207Z,35.10
2018-08-06T16:50:19.325Z,35.20
2018-08-06T16:52:49.760Z,35.20
2018-08-06T16:55:18.306Z,35.30
2018-08-06T16:57:46.954Z,35.30
2018-08-06T17:00:18.439Z,35.00
2018-08-06T17:02:48.667Z,34.80
2018-08-06T17:05:17.383Z,34.60
2018-08-06T17:07:47.208Z,34.60
2018-08-06T17:10:18.694Z,34.30
2018-08-06T17:12:48.792Z,34.20
2018-08-06T17:15:18.610Z,34.30
2018-08-06T17:17:48.139Z,34.20
2018-08-06T17:20:19.517Z,34.10
2018-08-06T17:22:49.912Z,34.10
2018-08-06T17:25:18.726Z,34.10
2018-08-06T17:27:47.415Z,33.90
2018-08-06T17:30:17.063Z,34.00
2018-08-06T17:32:46.317Z,33.90
2018-08-06T17:35:15.506Z,33.90
2018-08-06T17:37:44.177Z,34.00
2018-08-06T17:40:15.256Z,34.10
2018-08-06T17:42:44.879Z,34.20
2018-08-06T17:45:17.246Z,34.30
2018-08-06T17:47:47.996Z,34.50
2018-08-06T17:50:19.462Z,34.50
2018-08-06T17:52:50.287Z,34.30
2018-08-06T17:55:21.540Z,34.00
2018-08-06T17:57:50.354Z,33.80
2018-08-06T18:00:20.804Z,33.40
2018-08-06T18:02:50.374Z,33.20
2018-08-06T18:05:19.555Z,33.00
2018-08-06T18:07:49.032Z,32.70
2018-08-06T18:10:18.711Z,32.50
2018-08-06T18:12:47.865Z,32.10
2018-08-06T18:15:17.588Z,31.60
2018-08-06T18:17:47.212Z,31.20
2018-08-06T18:20:19.108Z,31.10
2018-08-06T18:22:49.640Z,30.80
2018-08-06T18:25:20.964Z,30.40
2018-08-06T18:27:51.896Z,30.20
2018-08-06T18:30:23.588Z,30.20
2018-08-06T18:32:54.633Z,30.20
2018-08-06T18:35:25.567Z,29.80
2018-08-06T18:37:56.715Z,29.40
2018-08-06T18:40:27.710Z,29.10
2018-08-06T18:43:00.176Z,29.10
2018-08-06T18:45:31.570Z,29.10
2018-08-06T18:48:03.180Z,29.00
2018-08-06T18:50:34.308Z,28.70
2018-08-06T18:53:05.291Z,28.50
2018-08-06T18:55:36.949Z,28.20
2018-08-06T19:00:39.098Z,28.10
2018-08-06T19:03:10.276Z,27.70
2018-08-06T19:05:41.655Z,27.80
2018-08-06T19:08:12.742Z,27.60
2018-08-06T19:10:44.116Z,27.60
2018-08-06T19:13:19.973Z,27.50
2018-08-06T19:15:51.597Z,27.20
2018-08-06T19:18:28.216Z,27.00
2018-08-06T19:21:01.297Z,26.70
2018-08-06T19:23:32.345Z,26.60
2018-08-06T19:26:03.440Z,26.70
2018-08-06T19:28:34.503Z,26.60
2018-08-06T19:31:10.478Z,26.50
2018-08-06T19:33:42.622Z,26.40
2018-08-06T19:36:13.874Z,26.20
2018-08-06T19:38:44.927Z,26.10
2018-08-06T19:41:16.241Z,26.00
2018-08-06T19:43:48.422Z,25.90
2018-08-06T19:46:19.566Z,25.80
2018-08-06T19:48:51.723Z,25.70
2018-08-06T19:51:22.775Z,25.60
2018-08-06T19:53:54.016Z,25.50
2018-08-06T19:56:25.373Z,25.40
2018-08-06T19:58:56.500Z,25.50
2018-08-06T20:01:27.736Z,25.60
2018-08-06T20:04:00.953Z,25.50
2018-08-06T20:06:32.384Z,25.50
2018-08-06T20:09:03.921Z,25.50
2018-08-06T20:11:35.741Z,25.30
2018-08-06T20:14:07.022Z,25.30
2018-08-06T20:16:38.645Z,25.20
2018-08-06T20:19:10.603Z,25.20
2018-08-06T20:21:41.770Z,25.30
2018-08-06T20:24:13.069Z,25.30
2018-08-06T20:26:44.234Z,25.50
2018-08-06T20:29:15.216Z,25.40
2018-08-06T20:31:46.345Z,25.30
2018-08-06T20:34:23.568Z,25.20
2018-08-06T20:36:54.652Z,25.10
2018-08-06T20:39:25.589Z,25.40
2018-08-06T20:41:56.721Z,25.30
2018-08-06T20:44:27.687Z,25.10
2018-08-06T20:46:59.136Z,24.90
2018-08-06T20:49:30.231Z,24.80
2018-08-06T20:52:01.398Z,24.80
2018-08-06T20:54:35.304Z,24.60
2018-08-06T20:57:06.614Z,24.50
2018-08-06T20:59:38.325Z,24.60
2018-08-06T21:02:09.720Z,24.70
2018-08-06T21:04:40.508Z,24.70
2018-08-06T21:07:11.664Z,24.50
2018-08-06T21:09:42.718Z,24.30
2018-08-06T21:12:13.696Z,24.20
2018-08-06T21:14:46.477Z,24.10
2018-08-06T21:17:16.676Z,24.10
2018-08-06T21:19:45.636Z,24.10
2018-08-06T21:22:15.369Z,24.30
2018-08-06T21:24:44.377Z,24.30
2018-08-06T21:27:13.222Z,24.20
2018-08-06T21:29:42.136Z,24.10
2018-08-06T21:32:10.712Z,24.10
2018-08-06T21:34:40.502Z,24.10
2018-08-06T21:37:09.174Z,24.20
2018-08-06T21:39:37.897Z,24.20
2018-08-06T21:42:06.797Z,24.20
2018-08-06T21:44:35.511Z,24.10
2018-08-06T21:47:04.166Z,24.10
2018-08-06T21:49:32.747Z,24.20
2018-08-06T21:52:01.404Z,24.20
2018-08-06T21:54:31.025Z,24.00
2018-08-06T21:57:00.735Z,23.90
2018-08-06T21:59:29.290Z,24.00
2018-08-06T22:01:57.992Z,24.20
2018-08-06T22:04:26.704Z,24.20
2018-08-06T22:06:55.421Z,24.00
2018-08-06T22:09:24.114Z,24.00
2018-08-06T22:11:53.152Z,23.90
2018-08-06T22:14:22.155Z,23.70
2018-08-06T22:16:51.724Z,23.70
2018-08-06T22:19:20.452Z,23.60
2018-08-06T22:24:18.160Z,23.50
2018-08-06T22:26:47.473Z,23.40
2018-08-06T22:29:16.070Z,23.60
2018-08-06T22:31:44.644Z,23.50
2018-08-06T22:34:13.246Z,23.30
2018-08-06T22:36:41.807Z,23.20
2018-08-06T22:39:11.135Z,23.10
2018-08-06T22:41:39.723Z,23.20
2018-08-06T22:44:08.347Z,23.20
2018-08-06T22:46:36.950Z,23.20
2018-08-06T22:49:06.511Z,23.30
2018-08-06T22:51:36.121Z,23.20
2018-08-06T22:54:04.863Z,23.30
2018-08-06T22:56:33.426Z,23.20
2018-08-06T22:59:02.138Z,23.00
